Time;durP1;ratioP1;P1;durP2;ratioP2;P2;SDS_P1;SDS_P2;PMS_P1;PMS_P2;Temp;Humidity;BMP_temperature;BMP_pressure;BME280_temperature;BME280_humidity;BME280_pressure;Samples;Min_cycle;Max_cycle;Signal;HPM_P1;HPM_P2
2023/08/03 00:01:38;;;;;;;5.00;3.40;;;;;;;18.43;65.30;97164.45;435138;1257;106483;-44
2023/08/03 00:11:44;;;;;;;6.60;3.00;;;;;;;18.55;65.36;97197.76;434698;1253;492340;-40
2023/08/03 00:21:59;;;;;;;5.60;3.20;;;;;;;18.73;65.25;97201.23;422881;1293;635334;-41
2023/08/03 00:42:14;;;;;;;5.00;2.80;;;;;;;18.97;65.24;97218.56;433928;1261;107573;-41
2023/08/03 00:52:23;;;;;;;3.70;2.90;;;;;;;19.01;65.32;97219.65;433769;1262;108263;-41
2023/08/03 01:02:29;;;;;;;4.00;2.90;;;;;;;19.03;65.77;97205.78;433957;1262;95324;-41
2023/08/03 01:12:37;;;;;;;5.00;1.90;;;;;;;19.11;66.20;97170.83;433929;1257;108027;-40
2023/08/03 01:32:47;;;;;;;4.90;2.00;;;;;;;19.27;66.84;97191.46;433962;1258;95180;-40
2023/08/03 01:42:54;;;;;;;3.90;2.10;;;;;;;19.36;66.77;97206.06;433475;1266;94929;-41
2023/08/03 01:53:01;;;;;;;2.20;1.50;;;;;;;19.51;66.80;97209.45;432289;1266;107044;-40
2023/08/03 02:13:15;;;;;;;1.90;1.60;;;;;;;19.58;67.22;97209.09;435316;1254;96275;-40
2023/08/03 02:23:19;;;;;;;1.50;1.10;;;;;;;19.57;67.22;97236.67;435376;1251;109191;-40
2023/08/03 02:33:27;;;;;;;4.80;1.80;;;;;;;19.58;67.21;97231.42;435189;1250;109348;-42
2023/08/03 02:43:33;;;;;;;;;;;;;;;19.54;68.07;97199.41;435337;1252;96168;-42
2023/08/03 02:53:40;;;;;;;5.20;1.80;;;;;;;19.40;69.33;97116.67;435372;1254;108128;-41
2023/08/03 03:03:47;;;;;;;3.50;1.70;;;;;;;19.39;70.51;97121.95;435402;1251;107875;-43
2023/08/03 03:13:53;;;;;;;1.70;1.50;;;;;;;19.41;70.46;97170.28;435383;1249;95709;-41
2023/08/03 03:24:00;;;;;;;2.70;1.60;;;;;;;19.35;71.34;97158.23;435542;1254;109291;-41
2023/08/03 03:34:07;;;;;;;1.50;1.40;;;;;;;19.44;71.19;97196.36;435502;1250;109115;-42
2023/08/03 03:44:13;;;;;;;2.90;1.60;;;;;;;19.57;71.09;97213.45;435380;1250;96520;-42
2023/08/03 03:54:19;;;;;;;2.80;1.40;;;;;;;19.75;71.00;97213.73;435333;1250;110785;-41
2023/08/03 04:04:26;;;;;;;2.70;2.00;;;;;;;19.84;70.90;97207.33;435373;1253;96230;-41
2023/08/03 04:14:38;;;;;;;2.30;1.80;;;;;;;19.83;71.33;97163.84;435392;1249;97182;-42
2023/08/03 04:24:45;;;;;;;4.20;1.50;;;;;;;19.89;71.32;97202.95;435210;1250;109398;-41
2023/08/03 04:34:51;;;;;;;1.50;1.40;;;;;;;20.00;71.20;97252.85;435447;1255;95295;-43
2023/08/03 04:55:03;;;;;;;7.10;1.80;;;;;;;20.19;70.69;97248.24;435377;1249;108131;-43
2023/08/03 05:05:11;;;;;;;4.40;1.70;;;;;;;20.36;70.40;97326.41;435297;1253;95664;-42
2023/08/03 05:25:23;;;;;;;2.20;1.70;;;;;;;20.37;70.36;97345.33;435371;1253;109360;-42
2023/08/03 05:35:31;;;;;;;6.10;1.90;;;;;;;20.43;70.62;97351.51;435426;1249;96991;-43
2023/08/03 05:45:41;;;;;;;2.20;1.70;;;;;;;20.72;70.74;97335.17;435336;1254;110948;-41
2023/08/03 05:55:49;;;;;;;2.90;2.20;;;;;;;21.15;70.55;97338.08;435484;1249;107902;-41
2023/08/03 06:06:19;;;;;;;5.90;2.30;;;;;;;21.05;70.30;97360.04;435454;1252;95353;-42
2023/08/03 06:16:26;;;;;;;4.30;1.80;;;;;;;20.94;70.26;97348.65;435496;1251;109598;-43
2023/08/03 06:26:34;;;;;;;2.40;1.60;;;;;;;20.97;70.52;97345.23;435426;1250;107645;-41
2023/08/03 06:36:41;;;;;;;2.60;1.60;;;;;;;20.84;70.63;97345.30;435494;1253;95266;-42
2023/08/03 06:56:55;;;;;;;4.50;1.80;;;;;;;20.51;71.00;97430.30;435269;1254;108457;-43
2023/08/03 07:07:02;;;;;;;3.10;2.80;;;;;;;20.47;71.61;97449.38;435267;1249;96543;-42
2023/08/03 07:17:06;;;;;;;2.20;1.50;;;;;;;20.48;71.99;97451.05;435275;1255;110292;-42
2023/08/03 07:27:14;;;;;;;5.30;2.10;;;;;;;20.39;72.31;97483.04;435226;1249;107089;-43
2023/08/03 07:37:22;;;;;;;2.00;1.80;;;;;;;20.27;72.70;97484.51;435479;1253;95235;-43
2023/08/03 07:47:30;;;;;;;3.30;2.30;;;;;;;20.07;73.49;97449.39;435444;1254;109397;-43
2023/08/03 07:57:36;;;;;;;3.50;2.00;;;;;;;19.97;74.12;97456.42;435423;1249;107642;-42
2023/08/03 08:07:43;;;;;;;2.20;1.70;;;;;;;19.96;74.55;97409.77;435370;1249;95863;-42
2023/08/03 08:17:52;;;;;;;2.20;1.90;;;;;;;19.79;75.61;97408.08;435347;1250;106892;-43
2023/08/03 08:27:59;;;;;;;2.00;1.70;;;;;;;19.68;77.16;97426.58;435297;1249;95321;-42
2023/08/03 08:38:09;;;;;;;4.90;2.20;;;;;;;19.50;77.83;97377.84;435411;1254;108880;-44
2023/08/03 08:48:16;;;;;;;5.80;2.30;;;;;;;19.38;78.24;97408.55;435332;1254;108204;-42
2023/08/03 08:58:27;;;;;;;6.50;2.90;;;;;;;19.47;78.34;97436.27;435518;1250;96010;-43
2023/08/03 09:18:59;;;;;;;3.80;2.60;;;;;;;19.60;78.23;97431.75;435287;1249;95291;-43
2023/08/03 09:39:34;;;;;;;5.40;2.40;;;;;;;19.74;77.76;97457.64;435374;1249;107665;-43
2023/08/03 09:49:41;;;;;;;3.60;2.10;;;;;;;19.49;77.23;97349.02;435466;1254;96137;-43
2023/08/03 09:59:53;;;;;;;3.60;2.00;;;;;;;19.22;77.35;97393.92;435415;1254;109720;-43
2023/08/03 10:10:03;;;;;;;4.00;2.90;;;;;;;19.30;77.30;97515.52;435383;1251;107381;-43
2023/08/03 10:20:11;;;;;;;5.90;1.80;;;;;;;19.34;77.31;97539.42;435287;1254;95789;-42
2023/08/03 10:30:18;;;;;;;6.90;2.20;;;;;;;19.37;77.18;97480.60;435223;1254;109277;-43
2023/08/03 10:40:24;;;;;;;9.60;4.10;;;;;;;19.25;77.27;97467.19;435307;1249;95556;-43
2023/08/03 10:51:04;;;;;;;5.60;2.90;;;;;;;19.32;77.18;97517.95;435278;1256;109123;-41
2023/08/03 11:21:29;;;;;;;1.80;1.50;;;;;;;20.18;76.09;97509.66;435410;1250;107871;-43
2023/08/03 11:31:36;;;;;;;4.20;2.10;;;;;;;20.86;74.79;97486.55;435373;1254;108343;-41
2023/08/03 11:41:41;;;;;;;;;;;;;;;21.18;73.23;97501.70;435463;1254;96151;-43
2023/08/03 11:51:50;;;;;;;7.60;1.90;;;;;;;20.99;72.23;97476.84;435354;1250;95668;-42
2023/08/03 12:01:57;;;;;;;3.70;2.60;;;;;;;20.86;71.93;97542.86;435455;1253;107072;-43
2023/08/03 12:12:04;;;;;;;6.70;2.20;;;;;;;21.07;71.31;97549.27;435354;1250;96333;-42
2023/08/03 12:22:12;;;;;;;4.20;1.80;;;;;;;21.17;71.03;97527.14;435503;1255;108876;-43
2023/08/03 12:32:19;;;;;;;2.80;1.40;;;;;;;21.06;70.48;97501.91;435085;1250;432935;-43
2023/08/03 12:42:26;;;;;;;3.10;1.40;;;;;;;20.88;70.23;97541.45;435352;1255;96540;-41
2023/08/03 12:52:34;;;;;;;4.40;1.10;;;;;;;20.93;69.48;97508.80;435477;1249;96163;-43
2023/08/03 13:02:40;;;;;;;;;;;;;;;21.13;69.61;97511.50;435366;1255;108235;-41
2023/08/03 13:12:48;;;;;;;4.20;1.30;;;;;;;21.19;69.08;97538.88;435325;1255;96163;-43
2023/08/03 13:23:08;;;;;;;3.10;1.60;;;;;;;21.02;68.73;97506.68;435275;1255;96375;-43
2023/08/03 13:33:15;;;;;;;3.50;1.50;;;;;;;21.02;68.42;97534.77;435314;1255;109008;-44
2023/08/03 13:43:22;;;;;;;5.20;1.80;;;;;;;21.27;68.16;97535.24;435466;1250;109486;-42
2023/08/03 13:53:28;;;;;;;7.80;2.00;;;;;;;21.93;67.47;97540.86;435343;1249;96459;-42
2023/08/03 14:03:35;;;;;;;5.30;1.70;;;;;;;22.27;66.02;97544.41;435306;1251;95327;-42
2023/08/03 14:13:42;;;;;;;1.60;1.40;;;;;;;22.33;64.15;97542.16;435339;1253;108433;-44
2023/08/03 14:23:51;;;;;;;5.90;1.40;;;;;;;22.30;62.92;97547.49;435496;1256;107629;-42
2023/08/03 14:44:14;;;;;;;4.40;1.70;;;;;;;22.96;62.79;97565.13;435381;1254;96141;-41
2023/08/03 14:54:28;;;;;;;5.90;1.90;;;;;;;22.88;61.90;97571.95;435486;1265;109655;-42
2023/08/03 15:24:53;;;;;;;3.30;1.60;;;;;;;22.49;61.55;97591.73;435326;1255;95676;-43
2023/08/03 15:35:00;;;;;;;2.60;1.40;;;;;;;22.79;61.28;97598.73;435433;1253;109022;-42
2023/08/03 15:45:11;;;;;;;5.50;1.40;;;;;;;22.79;60.18;97602.98;435359;1253;107384;-44
2023/08/03 15:55:25;;;;;;;3.10;1.20;;;;;;;22.58;59.87;97602.40;435335;1255;95237;-41
2023/08/03 16:05:38;;;;;;;5.70;1.20;;;;;;;22.42;59.31;97608.61;435451;1250;95545;-45
2023/08/03 16:15:42;;;;;;;4.10;1.00;;;;;;;22.45;59.39;97619.64;435636;1252;110204;-43
2023/08/03 16:25:50;;;;;;;5.70;1.30;;;;;;;22.48;59.38;97631.56;435461;1253;96121;-42
2023/08/03 16:46:02;;;;;;;4.80;1.10;;;;;;;21.91;59.40;97631.66;435405;1256;96232;-43
2023/08/03 17:06:13;;;;;;;6.20;1.20;;;;;;;21.34;59.71;97618.25;435286;1254;109595;-43
2023/08/03 17:16:20;;;;;;;4.70;1.20;;;;;;;21.06;59.97;97634.79;435289;1253;97906;-43
2023/08/03 17:26:27;;;;;;;2.70;1.40;;;;;;;20.83;60.17;97640.20;435467;1254;97073;-41
2023/08/03 17:36:36;;;;;;;5.30;2.10;;;;;;;20.58;60.47;97647.75;435314;1254;108408;-42
2023/08/03 17:46:43;;;;;;;2.60;2.10;;;;;;;20.37;60.77;97659.12;435399;1254;97893;-43
2023/08/03 17:56:51;;;;;;;2.80;1.70;;;;;;;20.20;61.27;97681.64;435269;1251;111641;-44
2023/08/03 18:06:58;;;;;;;4.90;2.00;;;;;;;20.12;61.74;97676.29;435304;1255;107428;-41
2023/08/03 18:17:04;;;;;;;4.70;2.10;;;;;;;20.07;62.17;97680.80;435160;1251;97863;-43
2023/08/03 18:27:12;;;;;;;5.40;1.50;;;;;;;19.86;62.56;97695.47;435451;1251;110399;-41
2023/08/03 18:37:19;;;;;;;4.60;1.50;;;;;;;19.63;62.93;97709.85;435429;1253;107859;-43
2023/08/03 18:47:26;;;;;;;6.60;2.10;;;;;;;19.41;62.95;97715.14;435266;1254;96642;-41
2023/08/03 18:57:33;;;;;;;6.40;1.70;;;;;;;19.15;63.13;97724.13;435352;1254;110041;-41
2023/08/03 19:07:40;;;;;;;8.40;2.10;;;;;;;18.98;63.46;97756.38;435324;1254;107381;-42
2023/08/03 19:17:47;;;;;;;2.50;1.10;;;;;;;18.93;63.83;97779.27;435344;1254;97234;-42
2023/08/03 19:48:09;;;;;;;5.30;2.00;;;;;;;18.56;64.77;97822.41;435338;1253;96982;-42
2023/08/03 19:58:14;;;;;;;3.20;1.50;;;;;;;18.45;65.12;97825.84;435266;1254;110004;-42
2023/08/03 20:08:21;;;;;;;4.50;1.90;;;;;;;18.42;65.53;97831.15;435468;1253;107903;-41
2023/08/03 20:18:32;;;;;;;5.50;1.90;;;;;;;18.35;65.71;97828.29;435371;1254;97809;-41
2023/08/03 20:28:40;;;;;;;3.00;2.50;;;;;;;18.28;66.09;97823.05;435353;1250;109547;-42
2023/08/03 20:38:56;;;;;;;5.00;2.20;;;;;;;18.21;66.23;97827.52;435371;1253;107701;-42
2023/08/03 20:49:15;;;;;;;4.20;2.10;;;;;;;18.20;66.36;97840.70;435669;1251;97895;-42
2023/08/03 20:59:23;;;;;;;5.00;2.10;;;;;;;18.10;66.50;97857.98;435798;1254;109342;-41
2023/08/03 21:09:31;;;;;;;5.90;1.80;;;;;;;17.98;66.63;97862.31;435466;1251;107946;-41
2023/08/03 21:19:39;;;;;;;5.40;1.70;;;;;;;17.91;66.82;97859.60;435414;1254;97986;-41
2023/08/03 21:39:53;;;;;;;3.50;1.90;;;;;;;17.81;67.16;97888.58;435234;1254;108236;-42
2023/08/03 21:50:00;;;;;;;6.40;2.20;;;;;;;17.70;67.39;97901.41;435414;1253;97456;-43
2023/08/03 22:10:16;;;;;;;4.80;1.40;;;;;;;17.63;67.73;97911.83;435361;1253;107575;-42
2023/08/03 22:20:22;;;;;;;3.80;1.50;;;;;;;17.57;67.74;97898.98;435404;1254;97922;-41
2023/08/03 22:30:29;;;;;;;6.00;2.00;;;;;;;17.45;68.16;97904.52;435465;1249;110872;-42
2023/08/03 22:40:34;;;;;;;6.00;1.60;;;;;;;17.41;68.14;97900.27;435301;1254;107182;-42
2023/08/03 22:50:42;;;;;;;2.80;1.40;;;;;;;17.42;68.44;97906.23;435344;1254;97928;-43
2023/08/03 23:00:48;;;;;;;5.50;2.20;;;;;;;17.36;68.52;97912.58;435377;1253;108045;-41
2023/08/03 23:10:56;;;;;;;6.30;1.80;;;;;;;17.18;68.90;97915.67;435315;1254;97475;-41
2023/08/03 23:21:05;;;;;;;4.30;1.60;;;;;;;16.98;69.00;97895.87;435343;1251;110807;-42
2023/08/03 23:31:10;;;;;;;7.00;1.30;;;;;;;16.87;69.46;97899.24;435247;1253;106676;-42
2023/08/03 23:41:18;;;;;;;4.50;1.80;;;;;;;16.88;69.91;97904.58;435427;1254;97465;-43
2023/08/03 23:51:26;;;;;;;6.10;1.90;;;;;;;16.85;69.95;97921.60;435257;1254;110392;-41
